sensor_id;sensor_type;location;lat;lon;timestamp;P1;durP1;ratioP1;P2;durP2;ratioP2
5499;SDS011;2772;42.700;23.304;2022-11-03T00:01:07;9.83;;;5.47;;
5499;SDS011;2772;42.700;23.304;2022-11-03T00:03:33;12.70;;;6.10;;
5499;SDS011;2772;42.700;23.304;2022-11-03T00:06:00;9.30;;;5.27;;
5499;SDS011;2772;42.700;23.304;2022-11-03T00:08:31;11.60;;;5.30;;
5499;SDS011;2772;42.700;23.304;2022-11-03T00:11:03;18.10;;;6.10;;
5499;SDS011;2772;42.700;23.304;2022-11-03T00:13:31;17.90;;;6.80;;
5499;SDS011;2772;42.700;23.304;2022-11-03T00:15:57;20.80;;;7.63;;
5499;SDS011;2772;42.700;23.304;2022-11-03T00:18:24;10.27;;;6.00;;
5499;SDS011;2772;42.700;23.304;2022-11-03T00:20:55;11.97;;;5.87;;
5499;SDS011;2772;42.700;23.304;2022-11-03T00:23:23;8.27;;;5.50;;
5499;SDS011;2772;42.700;23.304;2022-11-03T00:25:52;9.17;;;5.27;;
5499;SDS011;2772;42.700;23.304;2022-11-03T00:28:19;9.93;;;5.53;;
5499;SDS011;2772;42.700;23.304;2022-11-03T00:30:46;10.40;;;5.30;;
5499;SDS011;2772;42.700;23.304;2022-11-03T00:33:15;7.20;;;5.20;;
5499;SDS011;2772;42.700;23.304;2022-11-03T00:35:42;12.50;;;5.57;;
5499;SDS011;2772;42.700;23.304;2022-11-03T00:38:08;20.03;;;5.63;;
5499;SDS011;2772;42.700;23.304;2022-11-03T00:40:35;16.17;;;6.33;;
5499;SDS011;2772;42.700;23.304;2022-11-03T00:43:03;14.60;;;7.00;;
5499;SDS011;2772;42.700;23.304;2022-11-03T00:45:30;13.23;;;5.90;;
5499;SDS011;2772;42.700;23.304;2022-11-03T00:47:57;14.77;;;5.90;;
5499;SDS011;2772;42.700;23.304;2022-11-03T00:50:40;18.30;;;6.40;;
5499;SDS011;2772;42.700;23.304;2022-11-03T00:53:07;15.53;;;5.77;;
5499;SDS011;2772;42.700;23.304;2022-11-03T00:55:34;16.20;;;6.97;;
5499;SDS011;2772;42.700;23.304;2022-11-03T00:58:01;17.20;;;6.60;;
5499;SDS011;2772;42.700;23.304;2022-11-03T01:00:30;13.90;;;6.57;;
5499;SDS011;2772;42.700;23.304;2022-11-03T01:02:58;16.73;;;6.33;;
5499;SDS011;2772;42.700;23.304;2022-11-03T01:05:24;7.83;;;6.20;;
5499;SDS011;2772;42.700;23.304;2022-11-03T01:08:08;14.30;;;7.90;;
5499;SDS011;2772;42.700;23.304;2022-11-03T01:10:35;14.00;;;7.60;;
5499;SDS011;2772;42.700;23.304;2022-11-03T01:13:23;20.80;;;8.50;;
5499;SDS011;2772;42.700;23.304;2022-11-03T01:15:51;17.57;;;7.53;;
5499;SDS011;2772;42.700;23.304;2022-11-03T01:18:22;21.67;;;8.77;;
5499;SDS011;2772;42.700;23.304;2022-11-03T01:20:52;16.13;;;8.13;;
5499;SDS011;2772;42.700;23.304;2022-11-03T01:23:19;14.10;;;8.57;;
5499;SDS011;2772;42.700;23.304;2022-11-03T01:25:46;17.02;;;9.02;;
5499;SDS011;2772;42.700;23.304;2022-11-03T01:28:13;22.90;;;8.60;;
5499;SDS011;2772;42.700;23.304;2022-11-03T01:30:40;12.80;;;7.60;;
5499;SDS011;2772;42.700;23.304;2022-11-03T01:33:08;13.50;;;7.50;;
5499;SDS011;2772;42.700;23.304;2022-11-03T01:35:34;16.23;;;8.60;;
5499;SDS011;2772;42.700;23.304;2022-11-03T01:38:01;18.80;;;8.90;;
5499;SDS011;2772;42.700;23.304;2022-11-03T01:40:28;15.33;;;9.70;;
5499;SDS011;2772;42.700;23.304;2022-11-03T01:43:12;15.60;;;8.60;;
5499;SDS011;2772;42.700;23.304;2022-11-03T01:45:40;15.63;;;9.80;;
5499;SDS011;2772;42.700;23.304;2022-11-03T01:48:08;24.60;;;10.67;;
5499;SDS011;2772;42.700;23.304;2022-11-03T01:50:37;17.03;;;9.40;;
5499;SDS011;2772;42.700;23.304;2022-11-03T01:53:07;20.43;;;10.30;;
5499;SDS011;2772;42.700;23.304;2022-11-03T01:55:35;20.40;;;10.90;;
5499;SDS011;2772;42.700;23.304;2022-11-03T01:58:05;25.33;;;11.03;;
5499;SDS011;2772;42.700;23.304;2022-11-03T02:00:36;22.97;;;10.53;;
5499;SDS011;2772;42.700;23.304;2022-11-03T02:03:04;20.37;;;11.20;;
5499;SDS011;2772;42.700;23.304;2022-11-03T02:05:32;20.43;;;11.63;;
5499;SDS011;2772;42.700;23.304;2022-11-03T02:08:00;19.13;;;11.70;;
5499;SDS011;2772;42.700;23.304;2022-11-03T02:10:33;23.10;;;11.40;;
5499;SDS011;2772;42.700;23.304;2022-11-03T02:13:00;21.33;;;11.93;;
5499;SDS011;2772;42.700;23.304;2022-11-03T02:15:35;25.20;;;11.33;;
5499;SDS011;2772;42.700;23.304;2022-11-03T02:18:03;19.70;;;12.13;;
5499;SDS011;2772;42.700;23.304;2022-11-03T02:20:31;14.93;;;10.27;;
5499;SDS011;2772;42.700;23.304;2022-11-03T02:25:53;15.70;;;9.70;;
5499;SDS011;2772;42.700;23.304;2022-11-03T02:28:23;23.03;;;11.10;;
5499;SDS011;2772;42.700;23.304;2022-11-03T02:30:55;21.67;;;11.50;;
5499;SDS011;2772;42.700;23.304;2022-11-03T02:33:34;22.03;;;12.43;;
5499;SDS011;2772;42.700;23.304;2022-11-03T02:36:09;18.30;;;10.87;;
5499;SDS011;2772;42.700;23.304;2022-11-03T02:38:42;21.67;;;11.97;;
5499;SDS011;2772;42.700;23.304;2022-11-03T02:41:14;26.40;;;11.87;;
5499;SDS011;2772;42.700;23.304;2022-11-03T02:43:43;27.80;;;12.50;;
5499;SDS011;2772;42.700;23.304;2022-11-03T02:46:12;20.80;;;10.73;;
5499;SDS011;2772;42.700;23.304;2022-11-03T02:48:41;22.07;;;10.53;;
5499;SDS011;2772;42.700;23.304;2022-11-03T02:51:08;19.80;;;10.73;;
5499;SDS011;2772;42.700;23.304;2022-11-03T02:53:36;27.83;;;10.50;;
5499;SDS011;2772;42.700;23.304;2022-11-03T02:56:10;33.13;;;10.90;;
5499;SDS011;2772;42.700;23.304;2022-11-03T02:58:45;23.20;;;11.17;;
5499;SDS011;2772;42.700;23.304;2022-11-03T03:01:18;16.63;;;10.50;;
5499;SDS011;2772;42.700;23.304;2022-11-03T03:03:51;19.17;;;10.43;;
5499;SDS011;2772;42.700;23.304;2022-11-03T03:06:21;20.00;;;11.00;;
5499;SDS011;2772;42.700;23.304;2022-11-03T03:08:51;18.70;;;9.97;;
5499;SDS011;2772;42.700;23.304;2022-11-03T03:11:21;15.70;;;10.13;;
5499;SDS011;2772;42.700;23.304;2022-11-03T03:14:05;19.80;;;10.10;;
5499;SDS011;2772;42.700;23.304;2022-11-03T03:16:41;24.20;;;10.70;;
5499;SDS011;2772;42.700;23.304;2022-11-03T03:19:17;21.47;;;10.70;;
5499;SDS011;2772;42.700;23.304;2022-11-03T03:21:48;25.80;;;11.93;;
5499;SDS011;2772;42.700;23.304;2022-11-03T03:24:19;20.50;;;10.20;;
5499;SDS011;2772;42.700;23.304;2022-11-03T03:26:54;23.60;;;10.60;;
5499;SDS011;2772;42.700;23.304;2022-11-03T03:29:27;14.63;;;10.00;;
5499;SDS011;2772;42.700;23.304;2022-11-03T03:31:58;18.53;;;10.23;;
5499;SDS011;2772;42.700;23.304;2022-11-03T03:34:28;15.10;;;9.80;;
5499;SDS011;2772;42.700;23.304;2022-11-03T03:36:59;22.30;;;9.90;;
5499;SDS011;2772;42.700;23.304;2022-11-03T03:39:28;18.30;;;10.20;;
5499;SDS011;2772;42.700;23.304;2022-11-03T03:41:59;17.80;;;9.70;;
5499;SDS011;2772;42.700;23.304;2022-11-03T03:44:29;24.70;;;10.77;;
5499;SDS011;2772;42.700;23.304;2022-11-03T03:46:58;20.93;;;10.60;;
5499;SDS011;2772;42.700;23.304;2022-11-03T03:49:28;43.60;;;11.00;;
5499;SDS011;2772;42.700;23.304;2022-11-03T03:51:55;31.10;;;11.00;;
5499;SDS011;2772;42.700;23.304;2022-11-03T03:54:21;35.73;;;11.07;;
5499;SDS011;2772;42.700;23.304;2022-11-03T03:56:50;22.00;;;11.60;;
5499;SDS011;2772;42.700;23.304;2022-11-03T03:59:23;26.53;;;10.47;;
5499;SDS011;2772;42.700;23.304;2022-11-03T04:01:51;16.60;;;10.53;;
5499;SDS011;2772;42.700;23.304;2022-11-03T04:04:17;22.43;;;10.80;;
5499;SDS011;2772;42.700;23.304;2022-11-03T04:06:44;26.63;;;11.23;;
5499;SDS011;2772;42.700;23.304;2022-11-03T04:09:11;28.20;;;11.60;;
5499;SDS011;2772;42.700;23.304;2022-11-03T04:11:38;29.60;;;11.83;;
5499;SDS011;2772;42.700;23.304;2022-11-03T04:14:33;29.20;;;11.47;;
5499;SDS011;2772;42.700;23.304;2022-11-03T04:17:19;32.57;;;12.03;;
5499;SDS011;2772;42.700;23.304;2022-11-03T04:20:05;24.80;;;12.07;;
5499;SDS011;2772;42.700;23.304;2022-11-03T04:22:55;22.80;;;12.23;;
5499;SDS011;2772;42.700;23.304;2022-11-03T04:25:21;20.67;;;12.57;;
5499;SDS011;2772;42.700;23.304;2022-11-03T04:27:48;22.53;;;11.10;;
5499;SDS011;2772;42.700;23.304;2022-11-03T04:30:15;24.30;;;12.23;;
5499;SDS011;2772;42.700;23.304;2022-11-03T04:32:45;24.53;;;11.93;;
5499;SDS011;2772;42.700;23.304;2022-11-03T04:35:14;26.77;;;13.30;;
5499;SDS011;2772;42.700;23.304;2022-11-03T04:37:42;23.13;;;11.50;;
5499;SDS011;2772;42.700;23.304;2022-11-03T04:40:12;29.80;;;13.00;;
5499;SDS011;2772;42.700;23.304;2022-11-03T04:42:41;27.70;;;11.50;;
5499;SDS011;2772;42.700;23.304;2022-11-03T04:48:01;24.90;;;12.63;;
5499;SDS011;2772;42.700;23.304;2022-11-03T04:50:36;24.93;;;13.27;;
5499;SDS011;2772;42.700;23.304;2022-11-03T04:53:04;34.00;;;14.13;;
5499;SDS011;2772;42.700;23.304;2022-11-03T04:55:37;44.40;;;13.57;;
5499;SDS011;2772;42.700;23.304;2022-11-03T04:58:06;24.03;;;12.10;;
5499;SDS011;2772;42.700;23.304;2022-11-03T05:00:42;36.03;;;14.97;;
5499;SDS011;2772;42.700;23.304;2022-11-03T05:03:11;54.77;;;15.30;;
5499;SDS011;2772;42.700;23.304;2022-11-03T05:05:42;28.47;;;13.50;;
5499;SDS011;2772;42.700;23.304;2022-11-03T05:08:09;29.80;;;12.27;;
5499;SDS011;2772;42.700;23.304;2022-11-03T05:10:37;28.03;;;13.30;;
5499;SDS011;2772;42.700;23.304;2022-11-03T05:13:04;33.30;;;14.30;;
5499;SDS011;2772;42.700;23.304;2022-11-03T05:15:41;33.50;;;15.93;;
5499;SDS011;2772;42.700;23.304;2022-11-03T05:18:14;44.40;;;16.50;;
5499;SDS011;2772;42.700;23.304;2022-11-03T05:20:45;45.97;;;14.37;;
5499;SDS011;2772;42.700;23.304;2022-11-03T05:23:15;30.97;;;13.37;;
5499;SDS011;2772;42.700;23.304;2022-11-03T05:25:45;32.97;;;14.43;;
5499;SDS011;2772;42.700;23.304;2022-11-03T05:28:20;45.77;;;16.23;;
5499;SDS011;2772;42.700;23.304;2022-11-03T05:30:50;64.63;;;17.47;;
5499;SDS011;2772;42.700;23.304;2022-11-03T05:33:20;27.70;;;13.10;;
5499;SDS011;2772;42.700;23.304;2022-11-03T05:35:51;32.87;;;14.63;;
5499;SDS011;2772;42.700;23.304;2022-11-03T05:38:18;41.70;;;15.13;;
5499;SDS011;2772;42.700;23.304;2022-11-03T05:40:48;30.27;;;13.10;;
5499;SDS011;2772;42.700;23.304;2022-11-03T05:43:16;31.63;;;13.40;;
5499;SDS011;2772;42.700;23.304;2022-11-03T05:45:44;55.20;;;16.57;;
5499;SDS011;2772;42.700;23.304;2022-11-03T05:48:14;30.87;;;15.87;;
5499;SDS011;2772;42.700;23.304;2022-11-03T05:50:49;69.90;;;23.10;;
5499;SDS011;2772;42.700;23.304;2022-11-03T05:53:24;38.50;;;17.67;;
5499;SDS011;2772;42.700;23.304;2022-11-03T05:55:57;32.73;;;16.87;;
5499;SDS011;2772;42.700;23.304;2022-11-03T05:58:26;52.37;;;16.87;;
5499;SDS011;2772;42.700;23.304;2022-11-03T06:00:56;42.60;;;17.17;;
5499;SDS011;2772;42.700;23.304;2022-11-03T06:03:29;43.63;;;17.37;;
5499;SDS011;2772;42.700;23.304;2022-11-03T06:05:59;43.50;;;18.13;;
5499;SDS011;2772;42.700;23.304;2022-11-03T06:08:31;41.13;;;16.70;;
5499;SDS011;2772;42.700;23.304;2022-11-03T06:11:00;37.53;;;18.00;;
5499;SDS011;2772;42.700;23.304;2022-11-03T06:13:29;46.03;;;19.03;;
5499;SDS011;2772;42.700;23.304;2022-11-03T06:16:00;57.30;;;20.47;;
5499;SDS011;2772;42.700;23.304;2022-11-03T06:18:31;55.20;;;18.00;;
5499;SDS011;2772;42.700;23.304;2022-11-03T06:21:02;29.90;;;17.40;;
5499;SDS011;2772;42.700;23.304;2022-11-03T06:23:32;36.80;;;17.20;;
5499;SDS011;2772;42.700;23.304;2022-11-03T06:26:01;35.50;;;17.10;;
5499;SDS011;2772;42.700;23.304;2022-11-03T06:28:29;36.27;;;17.17;;
5499;SDS011;2772;42.700;23.304;2022-11-03T06:31:02;38.97;;;17.07;;
5499;SDS011;2772;42.700;23.304;2022-11-03T06:33:32;38.57;;;17.20;;
5499;SDS011;2772;42.700;23.304;2022-11-03T06:36:07;47.10;;;17.03;;
5499;SDS011;2772;42.700;23.304;2022-11-03T06:38:39;30.83;;;16.50;;
5499;SDS011;2772;42.700;23.304;2022-11-03T06:41:06;37.37;;;18.17;;
5499;SDS011;2772;42.700;23.304;2022-11-03T06:43:44;31.77;;;15.87;;
5499;SDS011;2772;42.700;23.304;2022-11-03T06:46:12;34.43;;;17.33;;
5499;SDS011;2772;42.700;23.304;2022-11-03T06:48:45;45.20;;;17.83;;
5499;SDS011;2772;42.700;23.304;2022-11-03T06:51:13;36.50;;;18.57;;
5499;SDS011;2772;42.700;23.304;2022-11-03T06:53:44;36.53;;;20.00;;
5499;SDS011;2772;42.700;23.304;2022-11-03T06:56:11;32.00;;;17.97;;
5499;SDS011;2772;42.700;23.304;2022-11-03T06:58:41;44.30;;;19.37;;
5499;SDS011;2772;42.700;23.304;2022-11-03T07:01:10;39.37;;;19.43;;
5499;SDS011;2772;42.700;23.304;2022-11-03T07:03:40;37.67;;;20.07;;
5499;SDS011;2772;42.700;23.304;2022-11-03T07:06:13;37.83;;;19.60;;
5499;SDS011;2772;42.700;23.304;2022-11-03T07:08:43;33.83;;;19.17;;
5499;SDS011;2772;42.700;23.304;2022-11-03T07:11:14;38.27;;;18.83;;
5499;SDS011;2772;42.700;23.304;2022-11-03T07:13:42;35.80;;;19.67;;
5499;SDS011;2772;42.700;23.304;2022-11-03T07:16:12;45.43;;;20.57;;
5499;SDS011;2772;42.700;23.304;2022-11-03T07:18:41;54.17;;;20.53;;
5499;SDS011;2772;42.700;23.304;2022-11-03T07:21:21;43.67;;;21.37;;
5499;SDS011;2772;42.700;23.304;2022-11-03T07:23:57;40.97;;;20.83;;
5499;SDS011;2772;42.700;23.304;2022-11-03T07:26:27;38.20;;;20.03;;
5499;SDS011;2772;42.700;23.304;2022-11-03T07:28:54;38.53;;;21.17;;
5499;SDS011;2772;42.700;23.304;2022-11-03T07:31:21;41.13;;;21.00;;
5499;SDS011;2772;42.700;23.304;2022-11-03T07:33:52;37.63;;;20.43;;
5499;SDS011;2772;42.700;23.304;2022-11-03T07:36:23;42.60;;;20.57;;
5499;SDS011;2772;42.700;23.304;2022-11-03T07:38:53;43.53;;;21.00;;
5499;SDS011;2772;42.700;23.304;2022-11-03T07:41:23;45.20;;;20.80;;
5499;SDS011;2772;42.700;23.304;2022-11-03T07:43:55;41.67;;;23.03;;
5499;SDS011;2772;42.700;23.304;2022-11-03T07:46:24;47.22;;;23.15;;
5499;SDS011;2772;42.700;23.304;2022-11-03T07:48:53;58.90;;;21.27;;
5499;SDS011;2772;42.700;23.304;2022-11-03T07:51:24;38.77;;;21.13;;
5499;SDS011;2772;42.700;23.304;2022-11-03T07:53:54;34.03;;;20.63;;
5499;SDS011;2772;42.700;23.304;2022-11-03T07:56:26;39.07;;;20.30;;
5499;SDS011;2772;42.700;23.304;2022-11-03T07:58:58;35.93;;;19.93;;
5499;SDS011;2772;42.700;23.304;2022-11-03T08:01:27;33.10;;;17.67;;
5499;SDS011;2772;42.700;23.304;2022-11-03T08:03:57;40.23;;;20.23;;
5499;SDS011;2772;42.700;23.304;2022-11-03T08:06:29;45.60;;;22.30;;
5499;SDS011;2772;42.700;23.304;2022-11-03T08:08:56;38.30;;;20.30;;
5499;SDS011;2772;42.700;23.304;2022-11-03T08:11:23;43.30;;;19.27;;
5499;SDS011;2772;42.700;23.304;2022-11-03T08:13:50;33.73;;;18.93;;
5499;SDS011;2772;42.700;23.304;2022-11-03T08:16:17;41.00;;;19.00;;
5499;SDS011;2772;42.700;23.304;2022-11-03T08:18:44;55.40;;;27.70;;
5499;SDS011;2772;42.700;23.304;2022-11-03T08:21:14;46.37;;;20.40;;
5499;SDS011;2772;42.700;23.304;2022-11-03T08:23:42;44.40;;;20.33;;
5499;SDS011;2772;42.700;23.304;2022-11-03T08:26:09;42.93;;;20.73;;
5499;SDS011;2772;42.700;23.304;2022-11-03T08:28:37;34.40;;;18.30;;
5499;SDS011;2772;42.700;23.304;2022-11-03T08:31:04;30.87;;;17.30;;
5499;SDS011;2772;42.700;23.304;2022-11-03T08:33:31;30.33;;;15.63;;
5499;SDS011;2772;42.700;23.304;2022-11-03T08:35:58;35.80;;;19.40;;
5499;SDS011;2772;42.700;23.304;2022-11-03T08:38:26;37.93;;;18.73;;
5499;SDS011;2772;42.700;23.304;2022-11-03T08:40:55;41.13;;;21.03;;
5499;SDS011;2772;42.700;23.304;2022-11-03T08:43:23;51.90;;;23.60;;
5499;SDS011;2772;42.700;23.304;2022-11-03T08:45:50;39.13;;;18.67;;
5499;SDS011;2772;42.700;23.304;2022-11-03T08:48:19;35.90;;;18.77;;
5499;SDS011;2772;42.700;23.304;2022-11-03T08:50:46;31.63;;;17.67;;
5499;SDS011;2772;42.700;23.304;2022-11-03T08:53:14;67.03;;;19.63;;
5499;SDS011;2772;42.700;23.304;2022-11-03T08:55:41;43.77;;;20.30;;
5499;SDS011;2772;42.700;23.304;2022-11-03T08:58:09;60.30;;;20.27;;
5499;SDS011;2772;42.700;23.304;2022-11-03T09:00:37;40.13;;;19.33;;
5499;SDS011;2772;42.700;23.304;2022-11-03T09:03:04;25.40;;;15.93;;
5499;SDS011;2772;42.700;23.304;2022-11-03T09:05:30;31.67;;;16.73;;
5499;SDS011;2772;42.700;23.304;2022-11-03T09:07:57;31.87;;;16.73;;
5499;SDS011;2772;42.700;23.304;2022-11-03T09:10:24;38.07;;;16.27;;
5499;SDS011;2772;42.700;23.304;2022-11-03T09:12:52;30.17;;;16.70;;
5499;SDS011;2772;42.700;23.304;2022-11-03T09:15:20;27.97;;;16.83;;
5499;SDS011;2772;42.700;23.304;2022-11-03T09:17:46;36.13;;;16.47;;
5499;SDS011;2772;42.700;23.304;2022-11-03T09:20:13;30.33;;;16.53;;
5499;SDS011;2772;42.700;23.304;2022-11-03T09:22:40;33.30;;;16.90;;
5499;SDS011;2772;42.700;23.304;2022-11-03T09:25:07;29.50;;;16.90;;
5499;SDS011;2772;42.700;23.304;2022-11-03T09:27:35;28.43;;;16.30;;
5499;SDS011;2772;42.700;23.304;2022-11-03T09:30:02;50.73;;;17.47;;
5499;SDS011;2772;42.700;23.304;2022-11-03T09:32:30;45.40;;;17.00;;
5499;SDS011;2772;42.700;23.304;2022-11-03T09:34:57;29.70;;;17.00;;
5499;SDS011;2772;42.700;23.304;2022-11-03T09:37:24;30.60;;;16.23;;
5499;SDS011;2772;42.700;23.304;2022-11-03T09:39:51;33.33;;;16.97;;
5499;SDS011;2772;42.700;23.304;2022-11-03T09:42:18;41.40;;;14.73;;
5499;SDS011;2772;42.700;23.304;2022-11-03T09:44:45;40.20;;;15.70;;
5499;SDS011;2772;42.700;23.304;2022-11-03T09:47:17;29.73;;;15.30;;
5499;SDS011;2772;42.700;23.304;2022-11-03T09:49:49;32.17;;;14.90;;
5499;SDS011;2772;42.700;23.304;2022-11-03T09:52:18;27.67;;;14.50;;
5499;SDS011;2772;42.700;23.304;2022-11-03T09:54:46;27.67;;;15.60;;
5499;SDS011;2772;42.700;23.304;2022-11-03T09:57:14;28.03;;;14.60;;
5499;SDS011;2772;42.700;23.304;2022-11-03T09:59:42;27.93;;;15.40;;
5499;SDS011;2772;42.700;23.304;2022-11-03T10:02:14;30.90;;;15.93;;
5499;SDS011;2772;42.700;23.304;2022-11-03T10:04:46;35.50;;;16.07;;
5499;SDS011;2772;42.700;23.304;2022-11-03T10:07:14;29.10;;;14.07;;
5499;SDS011;2772;42.700;23.304;2022-11-03T10:09:41;27.30;;;13.20;;
5499;SDS011;2772;42.700;23.304;2022-11-03T10:12:11;28.77;;;13.60;;
5499;SDS011;2772;42.700;23.304;2022-11-03T10:14:38;36.57;;;17.37;;
5499;SDS011;2772;42.700;23.304;2022-11-03T10:17:07;24.87;;;14.80;;
5499;SDS011;2772;42.700;23.304;2022-11-03T10:19:41;50.50;;;17.30;;
5499;SDS011;2772;42.700;23.304;2022-11-03T10:22:08;31.93;;;13.37;;
5499;SDS011;2772;42.700;23.304;2022-11-03T10:24:37;24.40;;;13.13;;
5499;SDS011;2772;42.700;23.304;2022-11-03T10:27:05;27.00;;;13.03;;
5499;SDS011;2772;42.700;23.304;2022-11-03T10:29:46;32.13;;;12.37;;
5499;SDS011;2772;42.700;23.304;2022-11-03T10:32:31;25.57;;;11.80;;
5499;SDS011;2772;42.700;23.304;2022-11-03T10:35:00;25.53;;;12.20;;
5499;SDS011;2772;42.700;23.304;2022-11-03T10:37:27;20.17;;;11.40;;
5499;SDS011;2772;42.700;23.304;2022-11-03T10:39:56;27.50;;;13.30;;
5499;SDS011;2772;42.700;23.304;2022-11-03T10:42:24;26.10;;;12.60;;
5499;SDS011;2772;42.700;23.304;2022-11-03T10:44:54;23.43;;;11.30;;
5499;SDS011;2772;42.700;23.304;2022-11-03T10:47:35;35.43;;;17.53;;
5499;SDS011;2772;42.700;23.304;2022-11-03T10:50:10;29.83;;;14.97;;
5499;SDS011;2772;42.700;23.304;2022-11-03T10:52:46;35.03;;;14.80;;
5499;SDS011;2772;42.700;23.304;2022-11-03T10:55:14;31.77;;;12.00;;
5499;SDS011;2772;42.700;23.304;2022-11-03T10:57:41;13.33;;;8.70;;
5499;SDS011;2772;42.700;23.304;2022-11-03T11:00:11;17.80;;;8.50;;
5499;SDS011;2772;42.700;23.304;2022-11-03T11:02:40;26.37;;;8.93;;
5499;SDS011;2772;42.700;23.304;2022-11-03T11:05:10;25.60;;;9.53;;
5499;SDS011;2772;42.700;23.304;2022-11-03T11:07:40;32.50;;;13.07;;
5499;SDS011;2772;42.700;23.304;2022-11-03T11:10:10;25.47;;;13.47;;
5499;SDS011;2772;42.700;23.304;2022-11-03T11:15:42;23.10;;;7.70;;
5499;SDS011;2772;42.700;23.304;2022-11-03T11:18:10;21.10;;;7.50;;
5499;SDS011;2772;42.700;23.304;2022-11-03T11:33:43;44.23;;;8.13;;
5499;SDS011;2772;42.700;23.304;2022-11-03T11:38:54;33.93;;;9.97;;
5499;SDS011;2772;42.700;23.304;2022-11-03T11:47:19;24.37;;;7.03;;
5499;SDS011;2772;42.700;23.304;2022-11-03T11:50:00;20.30;;;6.43;;
5499;SDS011;2772;42.700;23.304;2022-11-03T11:52:42;16.30;;;6.40;;
5499;SDS011;2772;42.700;23.304;2022-11-03T11:55:15;15.80;;;5.70;;
5499;SDS011;2772;42.700;23.304;2022-11-03T11:57:43;13.80;;;5.40;;
5499;SDS011;2772;42.700;23.304;2022-11-03T12:00:18;12.80;;;5.47;;
5499;SDS011;2772;42.700;23.304;2022-11-03T12:02:46;12.07;;;5.63;;
5499;SDS011;2772;42.700;23.304;2022-11-03T12:05:18;18.20;;;6.70;;
5499;SDS011;2772;42.700;23.304;2022-11-03T12:07:46;15.00;;;6.23;;
5499;SDS011;2772;42.700;23.304;2022-11-03T12:10:14;21.60;;;9.63;;
5499;SDS011;2772;42.700;23.304;2022-11-03T12:12:42;17.77;;;5.93;;
5499;SDS011;2772;42.700;23.304;2022-11-03T12:18:29;13.20;;;4.63;;
5499;SDS011;2772;42.700;23.304;2022-11-03T12:20:59;30.20;;;10.17;;
5499;SDS011;2772;42.700;23.304;2022-11-03T12:23:36;20.50;;;6.20;;
5499;SDS011;2772;42.700;23.304;2022-11-03T12:26:05;18.27;;;6.73;;
5499;SDS011;2772;42.700;23.304;2022-11-03T12:28:39;16.90;;;5.67;;
5499;SDS011;2772;42.700;23.304;2022-11-03T12:31:05;16.23;;;5.57;;
5499;SDS011;2772;42.700;23.304;2022-11-03T12:33:32;13.90;;;6.10;;
5499;SDS011;2772;42.700;23.304;2022-11-03T12:36:00;19.50;;;6.70;;
5499;SDS011;2772;42.700;23.304;2022-11-03T12:38:27;14.03;;;6.63;;
5499;SDS011;2772;42.700;23.304;2022-11-03T12:40:54;20.47;;;8.60;;
5499;SDS011;2772;42.700;23.304;2022-11-03T12:43:20;22.03;;;7.93;;
5499;SDS011;2772;42.700;23.304;2022-11-03T12:45:47;23.30;;;8.13;;
5499;SDS011;2772;42.700;23.304;2022-11-03T12:48:14;22.13;;;7.30;;
5499;SDS011;2772;42.700;23.304;2022-11-03T12:50:41;12.27;;;7.20;;
5499;SDS011;2772;42.700;23.304;2022-11-03T12:53:09;22.50;;;7.73;;
5499;SDS011;2772;42.700;23.304;2022-11-03T12:55:35;18.13;;;8.03;;
5499;SDS011;2772;42.700;23.304;2022-11-03T12:58:02;17.40;;;7.83;;
5499;SDS011;2772;42.700;23.304;2022-11-03T13:00:30;26.60;;;8.33;;
5499;SDS011;2772;42.700;23.304;2022-11-03T13:02:57;20.57;;;8.07;;
5499;SDS011;2772;42.700;23.304;2022-11-03T13:05:24;21.00;;;8.03;;
5499;SDS011;2772;42.700;23.304;2022-11-03T13:07:51;17.60;;;7.67;;
5499;SDS011;2772;42.700;23.304;2022-11-03T13:10:20;21.50;;;8.30;;
5499;SDS011;2772;42.700;23.304;2022-11-03T13:12:47;16.57;;;7.87;;
5499;SDS011;2772;42.700;23.304;2022-11-03T13:15:13;21.23;;;8.57;;
5499;SDS011;2772;42.700;23.304;2022-11-03T13:17:41;14.40;;;7.80;;
5499;SDS011;2772;42.700;23.304;2022-11-03T13:20:09;17.47;;;7.90;;
5499;SDS011;2772;42.700;23.304;2022-11-03T13:22:38;41.57;;;9.40;;
5499;SDS011;2772;42.700;23.304;2022-11-03T13:25:06;25.13;;;9.10;;
5499;SDS011;2772;42.700;23.304;2022-11-03T13:27:35;22.40;;;8.90;;
5499;SDS011;2772;42.700;23.304;2022-11-03T13:30:02;25.13;;;8.80;;
5499;SDS011;2772;42.700;23.304;2022-11-03T13:32:30;21.30;;;8.13;;
5499;SDS011;2772;42.700;23.304;2022-11-03T13:34:58;22.90;;;9.30;;
5499;SDS011;2772;42.700;23.304;2022-11-03T13:37:25;24.20;;;9.33;;
5499;SDS011;2772;42.700;23.304;2022-11-03T13:39:54;20.73;;;8.43;;
5499;SDS011;2772;42.700;23.304;2022-11-03T13:42:20;26.23;;;10.70;;
5499;SDS011;2772;42.700;23.304;2022-11-03T13:44:48;18.90;;;8.10;;
5499;SDS011;2772;42.700;23.304;2022-11-03T13:47:15;16.63;;;8.30;;
5499;SDS011;2772;42.700;23.304;2022-11-03T13:49:42;20.20;;;8.93;;
5499;SDS011;2772;42.700;23.304;2022-11-03T13:52:09;18.03;;;8.13;;
5499;SDS011;2772;42.700;23.304;2022-11-03T13:54:35;27.97;;;9.80;;
5499;SDS011;2772;42.700;23.304;2022-11-03T13:57:02;19.70;;;9.83;;
5499;SDS011;2772;42.700;23.304;2022-11-03T13:59:29;18.50;;;9.50;;
5499;SDS011;2772;42.700;23.304;2022-11-03T14:01:57;36.03;;;10.63;;
5499;SDS011;2772;42.700;23.304;2022-11-03T14:04:24;32.43;;;9.80;;
5499;SDS011;2772;42.700;23.304;2022-11-03T14:06:51;19.40;;;9.00;;
5499;SDS011;2772;42.700;23.304;2022-11-03T14:09:18;26.33;;;9.50;;
5499;SDS011;2772;42.700;23.304;2022-11-03T14:11:45;25.07;;;8.77;;
5499;SDS011;2772;42.700;23.304;2022-11-03T14:14:29;21.00;;;9.70;;
5499;SDS011;2772;42.700;23.304;2022-11-03T14:16:55;21.27;;;8.83;;
5499;SDS011;2772;42.700;23.304;2022-11-03T14:19:24;33.33;;;10.03;;
5499;SDS011;2772;42.700;23.304;2022-11-03T14:21:50;18.13;;;8.53;;
5499;SDS011;2772;42.700;23.304;2022-11-03T14:24:17;17.20;;;7.93;;
5499;SDS011;2772;42.700;23.304;2022-11-03T14:26:46;18.93;;;9.07;;
5499;SDS011;2772;42.700;23.304;2022-11-03T14:29:12;19.03;;;8.70;;
5499;SDS011;2772;42.700;23.304;2022-11-03T14:31:39;46.63;;;10.83;;
5499;SDS011;2772;42.700;23.304;2022-11-03T14:34:07;29.30;;;12.40;;
5499;SDS011;2772;42.700;23.304;2022-11-03T14:36:34;21.97;;;11.03;;
5499;SDS011;2772;42.700;23.304;2022-11-03T14:39:01;35.67;;;11.30;;
5499;SDS011;2772;42.700;23.304;2022-11-03T14:41:29;30.93;;;12.07;;
5499;SDS011;2772;42.700;23.304;2022-11-03T14:44:13;28.30;;;11.27;;
5499;SDS011;2772;42.700;23.304;2022-11-03T14:46:40;32.73;;;10.47;;
5499;SDS011;2772;42.700;23.304;2022-11-03T14:49:08;32.83;;;11.20;;
5499;SDS011;2772;42.700;23.304;2022-11-03T14:51:35;37.70;;;10.87;;
5499;SDS011;2772;42.700;23.304;2022-11-03T14:54:01;40.93;;;11.40;;
5499;SDS011;2772;42.700;23.304;2022-11-03T14:56:28;25.03;;;9.53;;
5499;SDS011;2772;42.700;23.304;2022-11-03T14:58:55;29.83;;;9.67;;
5499;SDS011;2772;42.700;23.304;2022-11-03T15:01:21;18.57;;;7.73;;
5499;SDS011;2772;42.700;23.304;2022-11-03T15:03:49;30.97;;;10.60;;
5499;SDS011;2772;42.700;23.304;2022-11-03T15:06:17;62.03;;;9.97;;
5499;SDS011;2772;42.700;23.304;2022-11-03T15:08:44;39.40;;;13.57;;
5499;SDS011;2772;42.700;23.304;2022-11-03T15:11:11;39.23;;;12.70;;
5499;SDS011;2772;42.700;23.304;2022-11-03T15:13:38;35.33;;;9.23;;
5499;SDS011;2772;42.700;23.304;2022-11-03T15:16:05;27.00;;;10.13;;
5499;SDS011;2772;42.700;23.304;2022-11-03T15:18:32;36.10;;;10.07;;
5499;SDS011;2772;42.700;23.304;2022-11-03T15:20:59;30.00;;;10.47;;
5499;SDS011;2772;42.700;23.304;2022-11-03T15:23:27;42.43;;;9.93;;
5499;SDS011;2772;42.700;23.304;2022-11-03T15:25:54;33.23;;;9.40;;